createdAt,value
2018-02-22T00:01:01.864Z,-1.60
2018-02-22T00:02:05.168Z,-1.70
2018-02-22T00:03:07.696Z,-1.70
2018-02-22T00:04:10.254Z,-1.70
2018-02-22T00:05:12.790Z,-1.70
2018-02-22T00:06:16.073Z,-1.70
2018-02-22T00:07:18.657Z,-1.70
2018-02-22T00:08:21.334Z,-1.70
2018-02-22T00:09:24.330Z,-1.70
2018-02-22T00:10:27.168Z,-1.70
2018-02-22T00:11:29.803Z,-1.70
2018-02-22T00:12:32.713Z,-1.70
2018-02-22T00:13:35.260Z,-1.70
2018-02-22T00:14:39.156Z,-1.70
2018-02-22T00:15:42.733Z,-1.70
2018-02-22T00:16:46.202Z,-1.70
2018-02-22T00:17:50.328Z,-1.70
2018-02-22T00:18:52.922Z,-1.70
2018-02-22T00:19:56.035Z,-1.70
2018-02-22T00:21:00.614Z,-1.70
2018-02-22T00:22:04.063Z,-1.70
2018-02-22T00:23:07.401Z,-1.70
2018-02-22T00:24:11.258Z,-1.70
2018-02-22T00:25:14.417Z,-1.60
2018-02-22T00:26:17.777Z,-1.70
2018-02-22T00:27:20.311Z,-1.60
2018-02-22T00:28:23.574Z,-1.60
2018-02-22T00:29:26.092Z,-1.60
2018-02-22T00:30:28.604Z,-1.60
2018-02-22T00:31:31.129Z,-1.60
2018-02-22T00:32:34.412Z,-1.50
2018-02-22T00:33:36.910Z,-1.60
2018-02-22T00:34:39.417Z,-1.60
2018-02-22T00:35:41.915Z,-1.60
2018-02-22T00:36:45.182Z,-1.60
2018-02-22T00:37:47.678Z,-1.60
2018-02-22T00:38:50.171Z,-1.60
2018-02-22T00:39:52.678Z,-1.60
2018-02-22T00:40:55.219Z,-1.60
2018-02-22T00:41:57.723Z,-1.60
2018-02-22T00:43:00.230Z,-1.60
2018-02-22T00:44:02.752Z,-1.60
2018-02-22T00:45:05.259Z,-1.60
2018-02-22T00:46:08.553Z,-1.60
2018-02-22T00:47:11.848Z,-1.70
2018-02-22T00:48:15.122Z,-1.70
2018-02-22T00:49:18.391Z,-1.70
2018-02-22T00:50:20.896Z,-1.70
2018-02-22T00:51:24.215Z,-1.70
2018-02-22T00:52:26.734Z,-1.70
2018-02-22T00:53:29.987Z,-1.60
2018-02-22T00:54:32.504Z,-1.70
2018-02-22T00:55:35.789Z,-1.70
2018-02-22T00:56:38.324Z,-1.70
2018-02-22T00:57:40.834Z,-1.70
2018-02-22T00:58:43.342Z,-1.70
2018-02-22T00:59:45.849Z,-1.70
2018-02-22T01:01:57.510Z,-1.70
2018-02-22T01:03:00.019Z,-1.70
2018-02-22T01:04:02.529Z,-1.70
2018-02-22T01:05:05.045Z,-1.80
2018-02-22T01:06:07.564Z,-1.80
2018-02-22T01:07:10.106Z,-1.80
2018-02-22T01:08:12.614Z,-1.80
2018-02-22T01:09:15.119Z,-1.80
2018-02-22T01:10:17.614Z,-1.80
2018-02-22T01:11:20.896Z,-1.80
2018-02-22T01:12:23.426Z,-1.90
2018-02-22T01:13:25.942Z,-1.90
2018-02-22T01:14:29.955Z,-1.90
2018-02-22T01:15:32.460Z,-1.90
2018-02-22T01:16:34.968Z,-1.90
2018-02-22T01:17:37.498Z,-1.90
2018-02-22T01:18:40.006Z,-1.90
2018-02-22T01:19:42.525Z,-1.90
2018-02-22T01:20:45.798Z,-1.90
2018-02-22T01:21:49.062Z,-1.90
2018-02-22T01:22:51.588Z,-1.90
2018-02-22T01:23:54.113Z,-1.90
2018-02-22T01:24:58.130Z,-1.90
2018-02-22T01:26:00.640Z,-1.90
2018-02-22T01:27:03.150Z,-1.90
2018-02-22T01:28:05.651Z,-1.90
2018-02-22T01:29:08.929Z,-1.90
2018-02-22T01:30:11.438Z,-1.90
2018-02-22T01:31:13.936Z,-1.90
2018-02-22T01:32:16.434Z,-1.90
2018-02-22T01:33:18.941Z,-2.00
2018-02-22T01:34:21.464Z,-2.00
2018-02-22T01:35:23.968Z,-2.00
2018-02-22T01:36:27.239Z,-2.00
2018-02-22T01:37:29.753Z,-2.00
2018-02-22T01:38:32.290Z,-2.00
2018-02-22T01:39:35.562Z,-2.00
2018-02-22T01:40:38.092Z,-2.10
2018-02-22T01:41:40.596Z,-2.00
2018-02-22T01:42:43.126Z,-2.00
2018-02-22T01:43:45.647Z,-2.10
2018-02-22T01:44:48.176Z,-2.10
2018-02-22T01:45:50.726Z,-2.00
2018-02-22T01:46:53.244Z,-2.10
2018-02-22T01:47:55.741Z,-2.10
2018-02-22T01:48:59.040Z,-2.10
2018-02-22T01:50:02.334Z,-2.10
2018-02-22T01:51:04.919Z,-2.10
2018-02-22T01:52:07.496Z,-2.10
2018-02-22T01:53:10.083Z,-2.10
2018-02-22T01:54:12.607Z,-2.20
2018-02-22T01:55:15.918Z,-2.10
2018-02-22T01:56:18.435Z,-2.10
2018-02-22T01:57:20.969Z,-2.10
2018-02-22T01:58:23.475Z,-2.10
2018-02-22T01:59:26.002Z,-2.10
2018-02-22T02:00:28.542Z,-2.10
2018-02-22T02:01:31.148Z,-2.00
2018-02-22T02:02:33.657Z,-2.10
2018-02-22T02:03:36.151Z,-2.10
2018-02-22T02:04:40.178Z,-2.10
2018-02-22T02:05:43.456Z,-2.00
2018-02-22T02:06:46.751Z,-2.00
2018-02-22T02:07:50.061Z,-2.00
2018-02-22T02:08:52.654Z,-2.00
2018-02-22T02:09:55.199Z,-2.00
2018-02-22T02:10:57.743Z,-2.00
2018-02-22T02:12:00.305Z,-2.00
2018-02-22T02:13:04.346Z,-2.00
2018-02-22T02:14:06.888Z,-2.00
2018-02-22T02:15:09.401Z,-2.10
2018-02-22T02:16:11.965Z,-2.10
2018-02-22T02:17:14.477Z,-2.10
2018-02-22T02:18:16.978Z,-2.10
2018-02-22T02:19:20.268Z,-2.10
2018-02-22T02:20:23.544Z,-2.10
2018-02-22T02:21:26.068Z,-2.10
2018-02-22T02:22:28.630Z,-2.10
2018-02-22T02:23:31.136Z,-2.10
2018-02-22T02:24:33.638Z,-2.10
2018-02-22T02:25:36.906Z,-2.10
2018-02-22T02:26:39.446Z,-2.20
2018-02-22T02:27:47.684Z,-2.10
2018-02-22T02:28:50.181Z,-2.10
2018-02-22T02:29:53.443Z,-2.00
2018-02-22T02:30:55.953Z,-2.10
2018-02-22T02:31:58.497Z,-2.10
2018-02-22T02:33:01.774Z,-2.10
2018-02-22T02:34:04.283Z,-2.10
2018-02-22T02:35:06.777Z,-2.10
2018-02-22T02:36:10.215Z,-2.10
2018-02-22T02:37:13.514Z,-2.10
2018-02-22T02:38:16.769Z,-2.10
2018-02-22T02:39:19.293Z,-2.10
2018-02-22T02:40:21.786Z,-2.10
2018-02-22T02:41:24.281Z,-2.00
2018-02-22T02:42:26.800Z,-2.00
2018-02-22T02:43:29.381Z,-2.00
2018-02-22T02:44:31.896Z,-2.00
2018-02-22T02:45:34.407Z,-2.00
2018-02-22T02:46:36.910Z,-2.00
2018-02-22T02:47:39.414Z,-2.10
2018-02-22T02:48:41.933Z,-2.10
2018-02-22T02:49:44.434Z,-2.10
2018-02-22T02:50:46.941Z,-2.00
2018-02-22T02:51:50.208Z,-2.00
2018-02-22T02:52:52.739Z,-2.00
2018-02-22T02:53:55.238Z,-2.00
2018-02-22T02:54:57.756Z,-2.00
2018-02-22T02:56:01.035Z,-2.10
2018-02-22T02:57:04.298Z,-2.10
2018-02-22T02:58:06.800Z,-2.10
2018-02-22T02:59:10.078Z,-2.10
2018-02-22T03:00:13.399Z,-2.10
2018-02-22T03:01:15.904Z,-2.10
2018-02-22T03:02:18.409Z,-2.10
2018-02-22T03:03:21.687Z,-2.10
2018-02-22T03:04:24.947Z,-2.10
2018-02-22T03:05:27.453Z,-2.10
2018-02-22T03:06:30.724Z,-2.10
2018-02-22T03:07:34.020Z,-2.00
2018-02-22T03:08:36.562Z,-2.10
2018-02-22T03:09:39.079Z,-2.00
2018-02-22T03:10:42.333Z,-2.00
2018-02-22T03:11:44.820Z,-2.00
2018-02-22T03:12:47.329Z,-2.00
2018-02-22T03:13:49.859Z,-2.00
2018-02-22T03:14:52.359Z,-2.00
2018-02-22T03:15:54.862Z,-2.00
2018-02-22T03:16:57.401Z,-2.00
2018-02-22T03:17:59.909Z,-2.00
2018-02-22T03:19:02.428Z,-2.00
2018-02-22T03:20:05.705Z,-2.00
2018-02-22T03:21:09.003Z,-2.10
2018-02-22T03:22:12.277Z,-2.00
2018-02-22T03:23:15.555Z,-2.00
2018-02-22T03:24:18.077Z,-2.00
2018-02-22T03:25:20.573Z,-2.10
2018-02-22T03:26:23.072Z,-2.10
2018-02-22T03:27:25.571Z,-2.10
2018-02-22T03:28:28.080Z,-2.10
2018-02-22T03:29:30.593Z,-2.10
2018-02-22T03:30:33.868Z,-2.20
2018-02-22T03:31:36.362Z,-2.10
2018-02-22T03:32:38.883Z,-2.20
2018-02-22T03:33:41.386Z,-2.10
2018-02-22T03:34:44.678Z,-2.20
2018-02-22T03:35:47.971Z,-2.20
2018-02-22T03:36:51.244Z,-2.20
2018-02-22T03:37:53.782Z,-2.20
2018-02-22T03:38:56.306Z,-2.20
2018-02-22T03:39:59.589Z,-2.20
2018-02-22T03:41:02.895Z,-2.20
2018-02-22T03:42:05.402Z,-2.30
2018-02-22T03:43:07.921Z,-2.20
2018-02-22T03:44:11.215Z,-2.20
2018-02-22T03:45:14.490Z,-2.20
2018-02-22T03:46:16.995Z,-2.20
2018-02-22T03:47:19.512Z,-2.20
2018-02-22T03:48:22.035Z,-2.20
2018-02-22T03:49:24.547Z,-2.20
2018-02-22T03:50:27.070Z,-2.30
2018-02-22T03:51:29.594Z,-2.30
2018-02-22T03:52:32.124Z,-2.30
2018-02-22T03:53:34.622Z,-2.30
2018-02-22T03:54:37.151Z,-2.30
2018-02-22T03:55:39.655Z,-2.30
2018-02-22T03:56:42.165Z,-2.30
2018-02-22T03:57:45.427Z,-2.30
2018-02-22T03:58:47.931Z,-2.30
2018-02-22T03:59:51.211Z,-2.30
2018-02-22T04:00:53.707Z,-2.30
2018-02-22T04:01:56.217Z,-2.30
2018-02-22T04:02:58.729Z,-2.40
2018-02-22T04:04:02.032Z,-2.40
2018-02-22T04:05:04.561Z,-2.40
2018-02-22T04:06:07.052Z,-2.40
2018-02-22T04:07:09.580Z,-2.40
2018-02-22T04:08:12.071Z,-2.50
2018-02-22T04:09:14.578Z,-2.50
2018-02-22T04:10:17.847Z,-2.50
2018-02-22T04:11:21.893Z,-2.60
2018-02-22T04:12:24.406Z,-2.60
2018-02-22T04:13:26.914Z,-2.50
2018-02-22T04:14:30.185Z,-2.50
2018-02-22T04:15:32.702Z,-2.60
2018-02-22T04:16:35.976Z,-2.60
2018-02-22T04:17:38.486Z,-2.60
2018-02-22T04:18:41.754Z,-2.60
2018-02-22T04:19:45.034Z,-2.60
2018-02-22T04:20:47.547Z,-2.60
2018-02-22T04:21:50.822Z,-2.60
2018-02-22T04:22:54.098Z,-2.70
2018-02-22T04:23:57.382Z,-2.70
2018-02-22T04:24:59.884Z,-2.70
2018-02-22T04:26:02.419Z,-2.70
2018-02-22T04:27:04.920Z,-2.60
2018-02-22T04:28:08.177Z,-2.70
2018-02-22T04:29:10.692Z,-2.70
2018-02-22T04:30:13.203Z,-2.60
2018-02-22T04:31:15.721Z,-2.70
2018-02-22T04:32:18.983Z,-2.70
2018-02-22T04:33:21.486Z,-2.70
2018-02-22T04:34:24.747Z,-2.70
2018-02-22T04:35:27.245Z,-2.80
2018-02-22T04:36:29.768Z,-2.70
2018-02-22T04:37:32.282Z,-2.80
2018-02-22T04:38:34.788Z,-2.80
2018-02-22T04:39:37.287Z,-2.90
2018-02-22T04:40:39.800Z,-2.80
2018-02-22T04:41:42.310Z,-2.90
2018-02-22T04:42:44.803Z,-2.90
2018-02-22T04:43:47.314Z,-2.90
2018-02-22T04:44:50.591Z,-2.90
2018-02-22T04:45:53.090Z,-2.90
2018-02-22T04:46:55.602Z,-2.90
2018-02-22T04:47:58.099Z,-2.90
2018-02-22T04:49:00.594Z,-3.00
2018-02-22T04:50:03.875Z,-3.00
2018-02-22T04:51:07.136Z,-3.00
2018-02-22T04:52:10.451Z,-3.00
2018-02-22T04:53:13.722Z,-3.00
2018-02-22T04:54:16.231Z,-3.00
2018-02-22T04:55:18.725Z,-3.00
2018-02-22T04:56:22.121Z,-3.00
2018-02-22T04:57:24.650Z,-3.00
2018-02-22T04:58:27.171Z,-3.00
2018-02-22T04:59:29.683Z,-2.90
2018-02-22T05:00:32.958Z,-3.10
2018-02-22T05:01:35.474Z,-3.00
2018-02-22T05:02:38.001Z,-3.00
2018-02-22T05:03:40.533Z,-3.00
2018-02-22T05:04:43.032Z,-3.10
2018-02-22T05:05:45.535Z,-3.10
2018-02-22T05:06:48.038Z,-3.10
2018-02-22T05:07:51.446Z,-3.10
2018-02-22T05:08:53.946Z,-3.10
2018-02-22T05:09:56.450Z,-3.10
2018-02-22T05:10:58.959Z,-3.10
2018-02-22T05:12:01.478Z,-3.10
2018-02-22T05:13:04.000Z,-3.10
2018-02-22T05:14:06.542Z,-3.00
2018-02-22T05:15:09.019Z,-3.00
2018-02-22T05:16:12.293Z,-3.00
2018-02-22T05:17:14.805Z,-3.00
2018-02-22T05:18:17.332Z,-3.00
2018-02-22T05:19:19.841Z,-3.00
2018-02-22T05:20:22.333Z,-3.00
2018-02-22T05:21:24.840Z,-3.00
2018-02-22T05:22:27.339Z,-3.10
2018-02-22T05:23:30.626Z,-3.00
2018-02-22T05:24:33.904Z,-3.00
2018-02-22T05:25:36.414Z,-3.10
2018-02-22T05:26:38.937Z,-3.00
2018-02-22T05:27:41.432Z,-3.00
2018-02-22T05:28:44.715Z,-3.00
2018-02-22T05:29:47.990Z,-3.00
2018-02-22T05:30:50.517Z,-3.00
2018-02-22T05:31:53.020Z,-3.00
2018-02-22T05:32:55.526Z,-3.00
2018-02-22T05:33:58.054Z,-2.90
2018-02-22T05:35:02.051Z,-3.10
2018-02-22T05:36:04.574Z,-3.00
2018-02-22T05:37:07.075Z,-3.10
2018-02-22T05:38:09.598Z,-3.10
2018-02-22T05:39:12.900Z,-3.00
2018-02-22T05:40:15.422Z,-3.10
2018-02-22T05:41:17.955Z,-3.10
2018-02-22T05:42:20.461Z,-3.00
2018-02-22T05:43:22.963Z,-3.00
2018-02-22T05:44:26.263Z,-3.00
2018-02-22T05:45:29.538Z,-3.00
2018-02-22T05:46:32.839Z,-3.10
2018-02-22T05:47:36.246Z,-3.10
2018-02-22T05:48:38.780Z,-3.10
2018-02-22T05:49:41.328Z,-3.10
2018-02-22T05:50:43.842Z,-3.10
2018-02-22T05:51:46.360Z,-3.10
2018-02-22T05:52:48.845Z,-3.00
2018-02-22T05:53:51.358Z,-3.10
2018-02-22T05:54:53.868Z,-3.20
2018-02-22T05:55:56.372Z,-3.20
2018-02-22T05:57:00.142Z,-3.20
2018-02-22T05:58:02.639Z,-3.20
2018-02-22T05:59:05.187Z,-3.20
2018-02-22T06:00:07.695Z,-3.30
2018-02-22T06:01:11.031Z,-3.30
2018-02-22T06:02:13.605Z,-3.30
2018-02-22T06:03:16.104Z,-3.20
2018-02-22T06:04:18.608Z,-3.30
2018-02-22T06:05:21.910Z,-3.30
2018-02-22T06:06:24.422Z,-3.40
2018-02-22T06:07:26.980Z,-3.30
2018-02-22T06:08:29.474Z,-3.30
2018-02-22T06:09:31.981Z,-3.40
2018-02-22T06:10:34.543Z,-3.40
2018-02-22T06:11:37.807Z,-3.40
2018-02-22T06:12:40.348Z,-3.40
2018-02-22T06:13:42.840Z,-3.40
2018-02-22T06:14:45.360Z,-3.40
2018-02-22T06:15:47.863Z,-3.40
2018-02-22T06:16:50.399Z,-3.40
2018-02-22T06:17:52.917Z,-3.40
2018-02-22T06:18:55.445Z,-3.40
2018-02-22T06:19:58.491Z,-3.40
2018-02-22T06:21:01.011Z,-3.40
2018-02-22T06:22:03.524Z,-3.40
2018-02-22T06:23:06.032Z,-3.40
2018-02-22T06:24:08.523Z,-3.40
2018-02-22T06:25:11.058Z,-3.40
2018-02-22T06:26:14.356Z,-3.40
2018-02-22T06:27:17.620Z,-3.40
2018-02-22T06:28:20.900Z,-3.40
2018-02-22T06:29:23.427Z,-3.40
2018-02-22T06:30:25.943Z,-3.40
2018-02-22T06:31:28.439Z,-3.40
2018-02-22T06:32:31.765Z,-3.40
2018-02-22T06:33:34.281Z,-3.40
2018-02-22T06:34:36.797Z,-3.30
2018-02-22T06:35:39.323Z,-3.40
2018-02-22T06:36:41.848Z,-3.30
2018-02-22T06:37:44.359Z,-3.20
2018-02-22T06:38:46.872Z,-3.30
2018-02-22T06:39:49.373Z,-3.30
2018-02-22T06:40:51.869Z,-3.30
2018-02-22T06:41:56.823Z,-3.20
2018-02-22T06:42:59.357Z,-3.30
2018-02-22T06:44:01.915Z,-3.30
2018-02-22T06:45:04.419Z,-3.30
2018-02-22T06:46:07.886Z,-3.20
2018-02-22T06:47:10.599Z,-3.20
2018-02-22T06:48:13.900Z,-3.20
2018-02-22T06:49:16.410Z,-3.20
2018-02-22T06:50:18.937Z,-3.10
2018-02-22T06:51:22.079Z,-3.10
2018-02-22T06:52:25.387Z,-3.00
2018-02-22T06:53:28.680Z,-3.00
2018-02-22T06:54:31.976Z,-3.00
2018-02-22T06:55:35.258Z,-3.00
2018-02-22T06:56:38.534Z,-3.00
2018-02-22T06:57:41.046Z,-3.00
2018-02-22T06:58:43.552Z,-3.00
2018-02-22T06:59:46.071Z,-3.00
2018-02-22T07:00:49.335Z,-2.90
2018-02-22T07:01:51.866Z,-2.90
2018-02-22T07:02:54.388Z,-2.90
2018-02-22T07:03:57.690Z,-2.90
2018-02-22T07:05:00.250Z,-2.90
2018-02-22T07:06:03.532Z,-2.80
2018-02-22T07:07:06.803Z,-2.80
2018-02-22T07:08:09.464Z,-2.80
2018-02-22T07:09:12.722Z,-2.80
2018-02-22T07:10:15.269Z,-2.80
2018-02-22T07:11:18.548Z,-2.70
2018-02-22T07:12:21.820Z,-2.70
2018-02-22T07:13:24.316Z,-2.70
2018-02-22T07:14:27.587Z,-2.60
2018-02-22T07:15:30.886Z,-2.60
2018-02-22T07:16:34.168Z,-2.50
2018-02-22T07:17:37.465Z,-2.50
2018-02-22T07:18:40.739Z,-2.50
2018-02-22T07:19:43.246Z,-2.50
2018-02-22T07:20:45.759Z,-2.50
2018-02-22T07:21:48.280Z,-2.50
2018-02-22T07:22:50.778Z,-2.50
2018-02-22T07:23:53.290Z,-2.40
2018-02-22T07:24:56.557Z,-2.30
2018-02-22T07:25:59.056Z,-2.30
2018-02-22T07:27:02.348Z,-2.20
2018-02-22T07:28:06.083Z,-2.20
2018-02-22T07:29:08.592Z,-2.20
2018-02-22T07:30:11.229Z,-2.20
2018-02-22T07:31:13.763Z,-2.20
2018-02-22T07:32:17.976Z,-2.10
2018-02-22T07:33:21.252Z,-2.00
2018-02-22T07:34:23.745Z,-2.00
2018-02-22T07:35:27.007Z,-1.90
2018-02-22T07:36:29.551Z,-1.90
2018-02-22T07:37:32.078Z,-1.90
2018-02-22T07:38:34.578Z,-1.80
2018-02-22T07:39:37.102Z,-1.80
2018-02-22T07:40:40.362Z,-1.60
2018-02-22T07:41:44.302Z,-1.70
2018-02-22T07:42:48.435Z,-1.60
2018-02-22T07:43:50.990Z,-1.60
2018-02-22T07:44:53.495Z,-1.50
2018-02-22T07:45:56.006Z,-1.40
2018-02-22T07:46:59.286Z,-1.20
2018-02-22T07:48:01.795Z,-1.10
2018-02-22T07:49:04.302Z,-1.00
2018-02-22T07:50:06.811Z,-0.80
2018-02-22T07:51:10.922Z,-0.50
2018-02-22T07:52:14.207Z,-0.20
2018-02-22T07:53:17.501Z,-0.20
2018-02-22T07:54:20.796Z,0.00
2018-02-22T07:55:24.090Z,0.20
2018-02-22T07:56:27.348Z,0.40
2018-02-22T07:57:29.856Z,0.40
2018-02-22T07:58:32.367Z,0.50
2018-02-22T07:59:34.867Z,0.70
2018-02-22T08:00:37.363Z,0.80
2018-02-22T08:01:39.878Z,0.90
2018-02-22T08:02:42.402Z,1.00
2018-02-22T08:03:44.927Z,1.00
2018-02-22T08:04:47.446Z,1.10
2018-02-22T08:05:49.962Z,1.10
2018-02-22T08:06:52.480Z,1.10
2018-02-22T08:07:54.971Z,1.30
2018-02-22T08:08:58.420Z,1.30
2018-02-22T08:10:01.715Z,1.50
2018-02-22T08:11:05.001Z,1.20
2018-02-22T08:12:08.266Z,1.20
2018-02-22T08:13:10.785Z,1.20
2018-02-22T08:14:14.079Z,1.50
2018-02-22T08:15:16.589Z,1.60
2018-02-22T08:16:19.130Z,1.50
2018-02-22T08:17:21.654Z,1.60
2018-02-22T08:18:24.180Z,1.80
2018-02-22T08:19:26.698Z,2.00
2018-02-22T08:20:29.966Z,2.30
2018-02-22T08:21:32.477Z,2.30
2018-02-22T08:22:34.972Z,2.30
2018-02-22T08:23:37.475Z,2.30
2018-02-22T08:24:39.977Z,2.40
2018-02-22T08:25:43.242Z,2.50
2018-02-22T08:26:45.770Z,2.50
2018-02-22T08:27:48.271Z,2.40
2018-02-22T08:28:50.771Z,2.30
2018-02-22T08:29:54.031Z,2.40
2018-02-22T08:30:56.552Z,2.30
2018-02-22T08:31:59.075Z,2.20
2018-02-22T08:33:01.581Z,2.30
2018-02-22T08:34:04.841Z,2.30
2018-02-22T08:36:07.360Z,2.20
2018-02-22T08:37:09.905Z,2.10
2018-02-22T08:38:13.293Z,2.00
2018-02-22T08:39:15.813Z,2.00
2018-02-22T08:40:19.297Z,2.00
2018-02-22T08:41:21.812Z,2.00
2018-02-22T08:42:24.322Z,2.00
2018-02-22T08:43:26.843Z,1.80
2018-02-22T08:44:29.362Z,2.20
2018-02-22T08:45:31.912Z,2.30
2018-02-22T08:46:34.414Z,2.50
2018-02-22T08:47:36.928Z,2.40
2018-02-22T08:48:39.430Z,2.20
2018-02-22T08:49:42.688Z,2.20
2018-02-22T08:50:45.562Z,2.20
2018-02-22T08:51:48.068Z,2.00
2018-02-22T08:52:51.325Z,2.00
2018-02-22T08:53:53.848Z,2.00
2018-02-22T08:54:56.371Z,2.10
2018-02-22T08:55:58.897Z,2.20
2018-02-22T08:57:01.413Z,2.30
2018-02-22T08:58:03.916Z,2.20
2018-02-22T08:59:07.193Z,2.10
2018-02-22T09:00:10.818Z,2.10
2018-02-22T09:01:13.431Z,2.10
2018-02-22T09:02:15.946Z,2.20
2018-02-22T09:03:19.239Z,2.20
2018-02-22T09:04:22.498Z,2.40
2018-02-22T09:05:24.999Z,2.40
2018-02-22T09:06:27.507Z,2.60
2018-02-22T09:07:30.004Z,2.60
2018-02-22T09:08:32.498Z,2.50
2018-02-22T09:09:35.781Z,2.30
2018-02-22T09:10:39.039Z,2.40
2018-02-22T09:11:41.585Z,2.40
2018-02-22T09:12:44.094Z,2.40
2018-02-22T09:13:46.603Z,2.50
2018-02-22T09:14:49.143Z,2.40
2018-02-22T09:15:51.658Z,2.40
2018-02-22T09:16:54.202Z,2.40
2018-02-22T09:17:57.472Z,2.50
2018-02-22T09:19:00.001Z,2.50
2018-02-22T09:20:02.512Z,2.40
2018-02-22T09:21:05.025Z,2.30
2018-02-22T09:22:07.534Z,2.40
2018-02-22T09:23:10.318Z,2.50
2018-02-22T09:24:12.858Z,2.60
2018-02-22T09:25:15.363Z,2.70
2018-02-22T09:26:17.865Z,2.80
2018-02-22T09:27:21.148Z,2.70
2018-02-22T09:28:24.426Z,2.70
2018-02-22T09:29:26.917Z,2.70
2018-02-22T09:30:30.193Z,2.80
2018-02-22T09:31:32.727Z,2.70
2018-02-22T09:32:35.220Z,2.30
2018-02-22T09:33:37.738Z,2.60
2018-02-22T09:34:40.242Z,2.40
2018-02-22T09:35:42.751Z,2.40
2018-02-22T09:36:46.021Z,2.40
2018-02-22T09:37:48.537Z,2.40
2018-02-22T09:38:51.047Z,2.50
2018-02-22T09:39:53.562Z,2.50
2018-02-22T09:40:56.101Z,2.60
2018-02-22T09:41:59.399Z,2.60
2018-02-22T09:43:02.676Z,2.50
2018-02-22T09:44:06.063Z,2.40
2018-02-22T09:45:08.595Z,2.50
2018-02-22T09:46:11.281Z,2.50
2018-02-22T09:47:13.803Z,2.50
2018-02-22T09:48:17.076Z,2.70
2018-02-22T09:49:19.583Z,2.70
2018-02-22T09:50:22.074Z,2.70
2018-02-22T09:51:24.592Z,2.60
2018-02-22T09:52:27.074Z,2.60
2018-02-22T09:53:30.337Z,2.60
2018-02-22T09:54:32.860Z,2.50
2018-02-22T09:55:35.368Z,2.60
2018-02-22T09:56:37.883Z,2.70
2018-02-22T09:57:40.398Z,2.60
2018-02-22T09:58:42.890Z,2.70
2018-02-22T09:59:45.397Z,2.80
2018-02-22T10:00:47.894Z,2.70
2018-02-22T10:01:50.387Z,2.60
2018-02-22T10:02:52.875Z,2.50
2018-02-22T10:03:55.358Z,2.40
2018-02-22T10:04:58.637Z,2.50
2018-02-22T10:06:01.142Z,2.50
2018-02-22T10:07:03.664Z,2.40
2018-02-22T10:08:06.240Z,2.40
2018-02-22T10:09:08.725Z,2.40
2018-02-22T10:10:12.282Z,2.30
2018-02-22T10:11:14.805Z,2.30
2018-02-22T10:12:18.049Z,2.30
2018-02-22T10:13:20.570Z,2.30
2018-02-22T10:14:23.078Z,2.30
2018-02-22T10:15:25.612Z,2.20
2018-02-22T10:16:28.254Z,2.30
2018-02-22T10:17:30.779Z,2.30
2018-02-22T10:18:33.264Z,2.20
2018-02-22T10:19:35.768Z,2.20
2018-02-22T10:20:39.051Z,2.20
2018-02-22T10:21:41.583Z,2.20
2018-02-22T10:22:44.085Z,2.20
2018-02-22T10:23:46.614Z,2.20
2018-02-22T10:24:49.149Z,2.20
2018-02-22T10:25:52.424Z,2.30
2018-02-22T10:26:54.952Z,2.30
2018-02-22T10:27:57.479Z,2.30
2018-02-22T10:29:00.740Z,2.40
2018-02-22T10:30:03.384Z,2.40
2018-02-22T10:31:05.870Z,2.50
2018-02-22T10:32:08.402Z,2.60
2018-02-22T10:33:11.037Z,2.60
2018-02-22T10:34:14.514Z,2.50
2018-02-22T10:35:17.856Z,2.60
2018-02-22T10:36:20.435Z,2.60
2018-02-22T10:37:22.971Z,2.70
2018-02-22T10:38:25.498Z,2.60
2018-02-22T10:39:28.051Z,2.60
2018-02-22T10:40:30.715Z,2.70
2018-02-22T10:41:33.414Z,2.70
2018-02-22T10:42:36.002Z,2.80
2018-02-22T10:43:38.528Z,2.70
2018-02-22T10:44:41.036Z,2.60
2018-02-22T10:45:43.557Z,2.70
2018-02-22T10:46:46.853Z,2.50
2018-02-22T10:47:49.537Z,2.50
2018-02-22T10:48:52.040Z,2.50
2018-02-22T10:49:54.547Z,2.50
2018-02-22T10:50:57.801Z,2.60
2018-02-22T10:52:00.301Z,2.60
2018-02-22T10:53:02.884Z,2.50
2018-02-22T10:54:06.186Z,2.50
2018-02-22T10:55:09.449Z,2.50
2018-02-22T10:56:12.147Z,2.50
2018-02-22T10:57:15.554Z,2.60
2018-02-22T10:58:18.074Z,2.60
2018-02-22T10:59:20.746Z,2.60
2018-02-22T11:00:29.263Z,2.60
2018-02-22T11:01:37.392Z,2.70
2018-02-22T11:02:59.632Z,2.60
2018-02-22T11:04:02.914Z,2.60
2018-02-22T11:05:06.191Z,2.70
2018-02-22T11:06:08.700Z,2.70
2018-02-22T11:07:11.523Z,2.70
2018-02-22T11:08:14.081Z,2.70
2018-02-22T11:09:16.571Z,2.70
2018-02-22T11:10:19.079Z,2.70
2018-02-22T11:11:21.614Z,2.60
2018-02-22T11:12:24.139Z,2.60
2018-02-22T11:13:26.643Z,2.70
2018-02-22T11:14:29.171Z,2.70
2018-02-22T11:15:31.668Z,2.70
2018-02-22T11:16:34.205Z,2.70
2018-02-22T11:17:36.722Z,2.80
2018-02-22T11:18:40.004Z,2.80
2018-02-22T11:19:42.542Z,2.70
2018-02-22T11:20:45.055Z,2.80
2018-02-22T11:21:47.604Z,2.80
2018-02-22T11:22:50.135Z,2.90
2018-02-22T11:23:52.650Z,3.00
2018-02-22T11:24:55.159Z,2.80
2018-02-22T11:25:58.422Z,2.80
2018-02-22T11:27:00.983Z,2.80
2018-02-22T11:28:03.547Z,2.80
2018-02-22T11:29:06.081Z,2.70
2018-02-22T11:30:08.769Z,2.80
2018-02-22T11:31:11.423Z,2.80
2018-02-22T11:32:14.061Z,2.80
2018-02-22T11:33:16.631Z,2.90
2018-02-22T11:34:19.115Z,2.80
2018-02-22T11:35:21.674Z,2.80
2018-02-22T11:36:24.191Z,2.80
2018-02-22T11:37:26.707Z,2.70
2018-02-22T11:38:29.239Z,2.70
2018-02-22T11:39:31.761Z,2.80
2018-02-22T11:40:34.353Z,2.80
2018-02-22T11:41:37.711Z,2.90
2018-02-22T11:42:40.287Z,2.80
2018-02-22T11:43:42.796Z,2.80
2018-02-22T11:44:46.073Z,2.80
2018-02-22T11:45:48.614Z,2.80
2018-02-22T11:46:51.135Z,2.90
2018-02-22T11:47:53.711Z,2.80
2018-02-22T11:48:56.269Z,2.90
2018-02-22T11:49:58.825Z,2.80
2018-02-22T11:51:02.165Z,2.90
2018-02-22T11:52:04.722Z,3.00
2018-02-22T11:53:07.243Z,2.90
2018-02-22T11:54:10.013Z,2.90
2018-02-22T11:55:12.791Z,2.90
2018-02-22T11:56:15.341Z,2.80
2018-02-22T11:57:17.851Z,2.90
2018-02-22T11:58:20.374Z,2.90
2018-02-22T11:59:22.915Z,2.80
2018-02-22T12:00:26.242Z,2.90
2018-02-22T12:01:28.791Z,2.90
2018-02-22T12:02:32.095Z,3.00
2018-02-22T12:03:35.367Z,3.00
2018-02-22T12:04:37.991Z,3.00
2018-02-22T12:05:41.379Z,3.00
2018-02-22T12:06:43.928Z,3.10
2018-02-22T12:07:46.490Z,3.10
2018-02-22T12:08:50.129Z,3.00
2018-02-22T12:09:52.660Z,3.10
2018-02-22T12:10:55.993Z,3.00
2018-02-22T12:11:58.583Z,3.00
2018-02-22T12:13:01.211Z,3.00
2018-02-22T12:14:03.838Z,3.00
2018-02-22T12:15:06.494Z,3.10
2018-02-22T12:16:09.101Z,3.10
2018-02-22T12:17:11.894Z,3.20
2018-02-22T12:18:14.492Z,3.20
2018-02-22T12:19:17.827Z,3.10
2018-02-22T12:20:20.443Z,3.10
2018-02-22T12:21:23.884Z,3.10
2018-02-22T12:22:26.531Z,3.10
2018-02-22T12:23:29.822Z,3.10
2018-02-22T12:24:33.204Z,3.00
2018-02-22T12:25:36.626Z,3.10
2018-02-22T12:26:39.179Z,3.10
2018-02-22T12:27:41.746Z,3.10
2018-02-22T12:28:44.330Z,3.20
2018-02-22T12:29:46.877Z,3.10
2018-02-22T12:30:50.227Z,3.10
2018-02-22T12:31:52.856Z,3.00
2018-02-22T12:32:55.387Z,3.00
2018-02-22T12:33:57.894Z,3.00
2018-02-22T12:35:00.448Z,3.00
2018-02-22T12:36:02.952Z,3.00
2018-02-22T12:37:05.608Z,3.00
2018-02-22T12:38:08.926Z,3.00
2018-02-22T12:39:11.703Z,3.00
2018-02-22T12:40:14.472Z,3.00
2018-02-22T12:41:17.148Z,3.10
2018-02-22T12:42:19.775Z,3.10
2018-02-22T12:43:22.392Z,3.10
2018-02-22T12:44:25.035Z,3.20
2018-02-22T12:45:28.379Z,3.10
2018-02-22T12:46:31.211Z,3.20
2018-02-22T12:47:34.505Z,3.10
2018-02-22T12:48:37.808Z,3.20
2018-02-22T12:49:40.367Z,3.20
2018-02-22T12:50:43.770Z,3.20
2018-02-22T12:51:46.414Z,3.10
2018-02-22T12:52:48.943Z,3.20
2018-02-22T12:53:51.585Z,3.20
2018-02-22T12:54:54.147Z,3.20
2018-02-22T12:55:57.325Z,3.20
2018-02-22T12:56:59.990Z,3.30
2018-02-22T12:58:03.327Z,3.30
2018-02-22T12:59:05.947Z,3.20
2018-02-22T13:00:08.495Z,3.20
2018-02-22T13:01:11.167Z,3.20
2018-02-22T13:02:13.898Z,3.30
2018-02-22T13:03:16.449Z,3.20
2018-02-22T13:04:19.852Z,3.10
2018-02-22T13:05:22.386Z,3.10
2018-02-22T13:06:24.907Z,3.00
2018-02-22T13:07:27.411Z,3.00
2018-02-22T13:08:29.962Z,3.10
2018-02-22T13:09:32.728Z,3.10
2018-02-22T13:10:35.361Z,3.10
2018-02-22T13:11:37.871Z,3.10
2018-02-22T13:12:40.357Z,3.00
2018-02-22T13:13:43.621Z,3.00
2018-02-22T13:14:46.410Z,3.00
2018-02-22T13:15:49.088Z,3.10
2018-02-22T13:16:51.617Z,3.10
2018-02-22T13:17:54.976Z,3.20
2018-02-22T13:18:57.492Z,3.20
2018-02-22T13:20:00.805Z,3.10
2018-02-22T13:21:03.315Z,3.10
2018-02-22T13:22:05.865Z,3.10
2018-02-22T13:23:08.367Z,3.10
2018-02-22T13:24:11.899Z,3.10
2018-02-22T13:25:14.494Z,3.10
2018-02-22T13:26:17.078Z,3.10
2018-02-22T13:27:19.717Z,3.20
2018-02-22T13:28:22.218Z,3.10
2018-02-22T13:29:24.864Z,3.10
2018-02-22T13:30:27.387Z,3.20
2018-02-22T13:31:29.908Z,3.10
2018-02-22T13:32:44.442Z,3.10
2018-02-22T13:33:58.799Z,3.10
2018-02-22T13:35:01.321Z,3.10
2018-02-22T13:36:03.874Z,3.20
2018-02-22T13:37:18.290Z,3.10
2018-02-22T13:38:32.654Z,3.10
2018-02-22T13:39:35.164Z,3.20
2018-02-22T13:40:37.766Z,3.20
2018-02-22T13:41:41.044Z,3.00
2018-02-22T13:42:43.586Z,3.10
2018-02-22T13:43:46.104Z,3.00